KRH weather

Redhill Aerodrome
Redhill, England, United Kingdom

Public forecast

Using degrees Celsius for public forecast. Weather courtesy of forecast.io.

METAR (pilot weather report)

Closest report is London Gatwick Airport, 4.4 nm (8.1 km) SSW. Retrieved 2019/03/23 13:50 UTC (18 minutes ago):

EGKK 231350Z 05009KT 010V080 9999 FEW031 BKN040 12/06 Q1032

TAF (pilot weather forecast)

Closest forecast is London Gatwick Airport, 4.4 nm (8.1 km) SSW. Retrieved 2019/03/23 12:15 UTC (2 hours ago):

TAF EGKK 231104Z 2312/2418 05008KT 9999 BKN025 BECMG 2315/2318 CAVOK PROB30 2400/2407 8000 BECMG 2408/2411 32010KT